createdAt,value
2018-06-28T00:00:28.575Z,1019.98
2018-06-28T00:01:28.599Z,1019.98
2018-06-28T00:02:28.621Z,1020.01
2018-06-28T00:03:28.648Z,1020.05
2018-06-28T00:04:28.672Z,1019.99
2018-06-28T00:05:28.693Z,1019.92
2018-06-28T00:06:28.718Z,1019.95
2018-06-28T00:07:28.742Z,1019.98
2018-06-28T00:08:28.766Z,1019.96
2018-06-28T00:09:28.789Z,1019.94
2018-06-28T00:10:28.816Z,1019.94
2018-06-28T00:11:28.837Z,1019.93
2018-06-28T00:12:28.862Z,1019.97
2018-06-28T00:13:28.885Z,1019.95
2018-06-28T00:14:28.909Z,1020
2018-06-28T00:15:28.932Z,1019.94
2018-06-28T00:16:28.956Z,1019.99
2018-06-28T00:18:29.004Z,1019.97
2018-06-28T00:19:29.028Z,1019.97
2018-06-28T00:20:29.051Z,1019.97
2018-06-28T00:21:29.074Z,1019.96
2018-06-28T00:22:29.099Z,1019.95
2018-06-28T00:23:29.122Z,1019.89
2018-06-28T00:24:29.147Z,1019.85
2018-06-28T00:25:29.170Z,1019.85
2018-06-28T00:26:29.194Z,1019.86
2018-06-28T00:27:29.217Z,1019.83
2018-06-28T00:28:29.244Z,1019.83
2018-06-28T00:29:29.268Z,1019.82
2018-06-28T00:30:29.289Z,1019.79
2018-06-28T00:31:29.311Z,1019.8
2018-06-28T00:32:29.336Z,1019.82
2018-06-28T00:34:29.385Z,1019.89
2018-06-28T00:35:29.407Z,1019.92
2018-06-28T00:36:29.430Z,1019.92
2018-06-28T00:37:29.459Z,1019.86
2018-06-28T00:38:29.478Z,1019.86
2018-06-28T00:39:29.503Z,1019.92
2018-06-28T00:40:29.526Z,1019.87
2018-06-28T00:41:29.550Z,1019.85
2018-06-28T00:42:29.573Z,1019.84
2018-06-28T00:43:29.597Z,1019.86
2018-06-28T00:44:29.623Z,1019.84
2018-06-28T00:45:29.646Z,1019.84
2018-06-28T00:46:29.668Z,1019.86
2018-06-28T00:47:29.691Z,1019.85
2018-06-28T00:48:29.719Z,1019.8
2018-06-28T00:50:29.762Z,1019.79
2018-06-28T00:51:29.786Z,1019.79
2018-06-28T00:52:29.810Z,1019.79
2018-06-28T00:53:29.834Z,1019.73
2018-06-28T00:54:29.858Z,1019.76
2018-06-28T00:55:29.881Z,1019.8
2018-06-28T00:56:29.905Z,1019.8
2018-06-28T00:57:29.928Z,1019.75
2018-06-28T00:58:29.953Z,1019.74
2018-06-28T00:59:29.974Z,1019.75
2018-06-28T01:00:29.998Z,1019.72
2018-06-28T01:01:30.027Z,1019.74
2018-06-28T01:02:30.046Z,1019.71
2018-06-28T01:03:30.069Z,1019.67
2018-06-28T01:04:30.093Z,1019.68
2018-06-28T01:06:30.140Z,1019.63
2018-06-28T01:07:30.164Z,1019.66
2018-06-28T01:08:30.187Z,1019.65
2018-06-28T01:09:30.218Z,1019.61
2018-06-28T01:10:30.234Z,1019.6
2018-06-28T01:11:30.258Z,1019.61
2018-06-28T01:12:30.280Z,1019.61
2018-06-28T01:13:30.305Z,1019.63
2018-06-28T01:14:30.329Z,1019.6
2018-06-28T01:15:30.352Z,1019.62
2018-06-28T01:16:30.375Z,1019.6
2018-06-28T01:17:30.400Z,1019.56
2018-06-28T01:18:30.423Z,1019.55
2018-06-28T01:19:30.446Z,1019.61
2018-06-28T01:21:30.492Z,1019.55
2018-06-28T01:22:30.518Z,1019.52
2018-06-28T01:23:30.541Z,1019.5
2018-06-28T01:24:30.565Z,1019.49
2018-06-28T01:25:30.589Z,1019.49
2018-06-28T01:26:30.612Z,1019.56
2018-06-28T01:27:30.638Z,1019.55
2018-06-28T01:28:30.662Z,1019.53
2018-06-28T01:29:30.682Z,1019.54
2018-06-28T01:30:30.707Z,1019.51
2018-06-28T01:31:30.731Z,1019.5
2018-06-28T01:32:30.753Z,1019.48
2018-06-28T01:33:30.776Z,1019.46
2018-06-28T01:34:30.799Z,1019.43
2018-06-28T01:35:30.823Z,1019.48
2018-06-28T01:36:30.847Z,1019.46
2018-06-28T01:37:30.870Z,1019.48
2018-06-28T01:38:30.896Z,1019.51
2018-06-28T01:39:30.917Z,1019.48
2018-06-28T01:40:30.941Z,1019.49
2018-06-28T01:41:30.965Z,1019.45
2018-06-28T01:42:30.988Z,1019.47
2018-06-28T01:43:31.010Z,1019.46
2018-06-28T01:44:31.033Z,1019.48
2018-06-28T01:45:31.058Z,1019.45
2018-06-28T01:46:31.081Z,1019.46
2018-06-28T01:47:31.105Z,1019.45
2018-06-28T01:48:31.132Z,1019.44
2018-06-28T01:49:31.151Z,1019.44
2018-06-28T01:50:31.176Z,1019.46
2018-06-28T01:51:31.198Z,1019.42
2018-06-28T01:53:31.246Z,1019.45
2018-06-28T01:54:31.268Z,1019.39
2018-06-28T01:55:31.292Z,1019.42
2018-06-28T01:56:31.315Z,1019.36
2018-06-28T01:57:31.338Z,1019.37
2018-06-28T01:58:31.363Z,1019.41
2018-06-28T01:59:31.385Z,1019.38
2018-06-28T02:00:31.409Z,1019.35
2018-06-28T02:01:31.433Z,1019.37
2018-06-28T02:02:31.455Z,1019.33
2018-06-28T02:03:31.479Z,1019.32
2018-06-28T02:04:31.503Z,1019.32
2018-06-28T02:05:31.527Z,1019.31
2018-06-28T02:06:31.553Z,1019.3
2018-06-28T02:07:31.572Z,1019.28
2018-06-28T02:09:31.620Z,1019.27
2018-06-28T02:10:31.643Z,1019.24
2018-06-28T02:11:31.666Z,1019.28
2018-06-28T02:12:31.690Z,1019.23
2018-06-28T02:13:31.712Z,1019.23
2018-06-28T02:14:31.737Z,1019.24
2018-06-28T02:15:31.760Z,1019.26
2018-06-28T02:16:31.783Z,1019.21
2018-06-28T02:17:31.804Z,1019.19
2018-06-28T02:18:31.829Z,1019.2
2018-06-28T02:19:31.853Z,1019.18
2018-06-28T02:20:31.876Z,1019.21
2018-06-28T02:21:31.898Z,1019.14
2018-06-28T02:22:31.922Z,1019.11
2018-06-28T02:23:31.946Z,1019.09
2018-06-28T02:25:31.998Z,1019.11
2018-06-28T02:26:32.016Z,1019.11
2018-06-28T02:27:32.040Z,1019.16
2018-06-28T02:28:32.061Z,1019.11
2018-06-28T02:29:32.086Z,1019.09
2018-06-28T02:30:32.110Z,1019.11
2018-06-28T02:31:32.133Z,1019.13
2018-06-28T02:32:32.155Z,1019.08
2018-06-28T02:33:32.180Z,1019.12
2018-06-28T02:34:32.202Z,1019.13
2018-06-28T02:35:32.226Z,1019.1
2018-06-28T02:36:32.252Z,1019.08
2018-06-28T02:37:32.274Z,1019.08
2018-06-28T02:38:32.299Z,1019.08
2018-06-28T02:39:32.319Z,1019.06
2018-06-28T02:41:32.365Z,1019.07
2018-06-28T02:42:32.390Z,1019.05
2018-06-28T02:43:32.412Z,1019.05
2018-06-28T02:44:32.434Z,1019.04
2018-06-28T02:45:32.459Z,1019.01
2018-06-28T02:46:32.481Z,1018.97
2018-06-28T02:47:32.506Z,1019
2018-06-28T02:48:32.528Z,1018.99
2018-06-28T02:49:32.552Z,1019.02
2018-06-28T02:50:32.579Z,1018.95
2018-06-28T02:51:32.598Z,1019.01
2018-06-28T02:52:32.620Z,1018.96
2018-06-28T02:53:32.646Z,1018.98
2018-06-28T02:54:32.668Z,1018.96
2018-06-28T02:56:32.715Z,1018.93
2018-06-28T02:57:32.737Z,1018.92
2018-06-28T02:58:32.760Z,1018.95
2018-06-28T02:59:32.785Z,1018.92
2018-06-28T03:00:32.809Z,1018.9
2018-06-28T03:01:32.831Z,1018.87
2018-06-28T03:02:32.854Z,1018.88
2018-06-28T03:03:32.878Z,1018.81
2018-06-28T03:04:32.900Z,1018.85
2018-06-28T03:05:32.922Z,1018.9
2018-06-28T03:06:32.947Z,1018.87
2018-06-28T03:07:32.969Z,1018.89
2018-06-28T03:08:32.992Z,1018.9
2018-06-28T03:09:33.016Z,1018.88
2018-06-28T03:10:33.041Z,1018.88
2018-06-28T03:11:33.063Z,1018.87
2018-06-28T03:12:33.084Z,1018.9
2018-06-28T03:13:33.108Z,1018.92
2018-06-28T03:14:33.143Z,1018.94
2018-06-28T03:15:33.155Z,1018.9
2018-06-28T03:16:33.178Z,1018.88
2018-06-28T03:17:33.204Z,1018.86
2018-06-28T03:18:33.224Z,1018.87
2018-06-28T03:19:33.247Z,1018.91
2018-06-28T03:20:33.270Z,1018.86
2018-06-28T03:21:33.293Z,1018.93
2018-06-28T03:22:33.319Z,1018.86
2018-06-28T03:23:33.339Z,1018.87
2018-06-28T03:24:33.362Z,1018.87
2018-06-28T03:25:33.386Z,1018.86
2018-06-28T03:26:33.408Z,1018.85
2018-06-28T03:28:33.454Z,1018.88
2018-06-28T03:29:33.477Z,1018.9
2018-06-28T03:30:33.499Z,1018.85
2018-06-28T03:31:33.523Z,1018.86
2018-06-28T03:32:33.546Z,1018.87
2018-06-28T03:33:33.570Z,1018.85
2018-06-28T03:34:33.591Z,1018.88
2018-06-28T03:35:33.616Z,1018.89
2018-06-28T03:36:33.638Z,1018.87
2018-06-28T03:37:33.698Z,1018.85
2018-06-28T03:38:33.683Z,1018.89
2018-06-28T03:39:33.707Z,1018.89
2018-06-28T03:40:33.735Z,1018.89
2018-06-28T03:41:33.759Z,1018.87
2018-06-28T03:42:33.782Z,1018.91
2018-06-28T03:44:33.829Z,1019.02
2018-06-28T03:45:33.850Z,1018.92
2018-06-28T03:46:33.875Z,1018.92
2018-06-28T03:47:33.895Z,1018.92
2018-06-28T03:48:33.921Z,1018.94
2018-06-28T03:49:33.941Z,1018.96
2018-06-28T03:50:33.968Z,1018.95
2018-06-28T03:51:33.988Z,1018.93
2018-06-28T03:52:34.011Z,1018.91
2018-06-28T03:53:34.033Z,1018.98
2018-06-28T03:54:34.058Z,1018.94
2018-06-28T03:55:34.081Z,1018.97
2018-06-28T03:56:34.106Z,1018.91
2018-06-28T03:57:34.127Z,1018.91
2018-06-28T03:58:34.150Z,1018.91
2018-06-28T04:00:34.196Z,1018.97
2018-06-28T04:01:34.217Z,1018.94
2018-06-28T04:02:34.247Z,1018.91
2018-06-28T04:03:34.257Z,1018.88
2018-06-28T04:04:34.283Z,1018.89
2018-06-28T04:05:34.304Z,1018.9
2018-06-28T04:06:34.400Z,1018.92
2018-06-28T04:07:34.349Z,1018.93
2018-06-28T04:08:34.373Z,1018.89
2018-06-28T04:09:34.396Z,1018.94
2018-06-28T04:10:34.423Z,1018.94
2018-06-28T04:11:34.442Z,1018.99
2018-06-28T04:12:34.464Z,1019.02
2018-06-28T04:13:34.489Z,1019.07
2018-06-28T04:14:34.511Z,1019.12
2018-06-28T04:16:34.609Z,1019.04
2018-06-28T04:17:34.581Z,1019.1
2018-06-28T04:18:34.605Z,1019.06
2018-06-28T04:19:34.628Z,1019.04
2018-06-28T04:20:34.652Z,1019.08
2018-06-28T04:21:34.674Z,1019.08
2018-06-28T04:22:34.699Z,1019.13
2018-06-28T04:23:34.724Z,1019.2
2018-06-28T04:24:34.746Z,1019.19
2018-06-28T04:25:34.769Z,1019.15
2018-06-28T04:26:34.793Z,1019.13
2018-06-28T04:27:34.818Z,1019.14
2018-06-28T04:28:34.843Z,1019.19
2018-06-28T04:29:34.872Z,1019.1
2018-06-28T04:31:34.915Z,1019.08
2018-06-28T04:32:34.938Z,1019.08
2018-06-28T04:33:34.964Z,1019.12
2018-06-28T04:34:34.989Z,1019.19
2018-06-28T04:35:35.013Z,1019.19
2018-06-28T04:36:35.035Z,1019.18
2018-06-28T04:37:35.067Z,1019.18
2018-06-28T04:38:35.086Z,1019.15
2018-06-28T04:39:35.111Z,1019.14
2018-06-28T04:40:35.134Z,1019.12
2018-06-28T04:41:35.160Z,1019.17
2018-06-28T04:42:35.185Z,1019.12
2018-06-28T04:43:35.211Z,1019.09
2018-06-28T04:44:35.239Z,1019.06
2018-06-28T04:45:35.260Z,1019.17
2018-06-28T04:46:35.285Z,1019.16
2018-06-28T04:47:35.318Z,1019.09
2018-06-28T04:48:35.337Z,1019.09
2018-06-28T04:49:35.362Z,1019.08
2018-06-28T04:50:35.384Z,1019.08
2018-06-28T04:51:35.420Z,1019.08
2018-06-28T04:52:35.436Z,1019.07
2018-06-28T04:53:35.463Z,1019.1
2018-06-28T04:54:35.486Z,1019.12
2018-06-28T04:55:35.511Z,1019.08
2018-06-28T04:56:35.538Z,1019.11
2018-06-28T04:57:35.564Z,1019.1
2018-06-28T04:58:35.590Z,1019.1
2018-06-28T04:59:35.615Z,1019.15
2018-06-28T05:00:35.643Z,1019.09
2018-06-28T05:01:35.668Z,1019.07
2018-06-28T05:03:35.720Z,1019.11
2018-06-28T05:04:35.748Z,1019.05
2018-06-28T05:05:35.774Z,1019.16
2018-06-28T05:06:35.801Z,1019.18
2018-06-28T05:07:35.828Z,1019.17
2018-06-28T05:08:35.855Z,1019.24
2018-06-28T05:09:35.883Z,1019.33
2018-06-28T05:10:35.913Z,1019.33
2018-06-28T05:11:35.938Z,1019.37
2018-06-28T05:12:35.964Z,1019.35
2018-06-28T05:13:35.992Z,1019.29
2018-06-28T05:14:36.023Z,1019.35
2018-06-28T05:15:36.056Z,1019.4
2018-06-28T05:16:36.078Z,1019.46
2018-06-28T05:17:36.115Z,1019.42
2018-06-28T05:19:36.165Z,1019.38
2018-06-28T05:20:36.193Z,1019.25
2018-06-28T05:21:36.221Z,1019.45
2018-06-28T05:22:36.255Z,1019.43
2018-06-28T05:23:36.347Z,1019.42
2018-06-28T05:24:36.310Z,1019.56
2018-06-28T05:25:36.339Z,1019.56
2018-06-28T05:26:36.370Z,1019.57
2018-06-28T05:27:36.400Z,1019.54
2018-06-28T05:28:36.528Z,1019.48
2018-06-28T05:29:36.457Z,1019.51
2018-06-28T05:30:36.489Z,1019.4
2018-06-28T05:31:36.518Z,1019.45
2018-06-28T05:32:36.552Z,1019.53
2018-06-28T05:33:36.579Z,1019.51
2018-06-28T05:35:36.642Z,1019.34
2018-06-28T05:36:36.673Z,1019.4
2018-06-28T05:37:36.702Z,1019.36
2018-06-28T05:38:36.733Z,1019.27
2018-06-28T05:39:36.767Z,1019.29
2018-06-28T05:40:36.800Z,1019.26
2018-06-28T05:41:36.828Z,1019.24
2018-06-28T05:42:36.857Z,1019.25
2018-06-28T05:43:36.886Z,1019.22
2018-06-28T05:44:36.919Z,1019.28
2018-06-28T05:45:36.949Z,1019.28
2018-06-28T05:46:36.980Z,1019.26
2018-06-28T05:47:37.011Z,1019.33
2018-06-28T05:48:37.042Z,1019.36
2018-06-28T05:49:37.072Z,1019.31
2018-06-28T05:51:37.135Z,1019.32
2018-06-28T05:52:37.166Z,1019.4
2018-06-28T05:53:37.195Z,1019.39
2018-06-28T05:54:37.227Z,1019.34
2018-06-28T05:55:37.259Z,1019.41
2018-06-28T05:56:37.289Z,1019.36
2018-06-28T05:57:37.320Z,1019.33
2018-06-28T05:58:37.352Z,1019.4
2018-06-28T05:59:37.383Z,1019.35
2018-06-28T06:00:37.414Z,1019.41
2018-06-28T06:01:37.447Z,1019.4
2018-06-28T06:02:37.477Z,1019.37
2018-06-28T06:03:37.511Z,1019.33
2018-06-28T06:04:37.543Z,1019.3
2018-06-28T06:06:37.609Z,1019.36
2018-06-28T06:07:37.639Z,1019.29
2018-06-28T06:08:37.671Z,1019.28
2018-06-28T06:09:37.705Z,1019.3
2018-06-28T06:10:37.741Z,1019.3
2018-06-28T06:11:37.770Z,1019.26
2018-06-28T06:12:37.802Z,1019.23
2018-06-28T06:13:37.836Z,1019.16
2018-06-28T06:14:37.867Z,1019.1
2018-06-28T06:15:37.901Z,1019.02
2018-06-28T06:16:37.937Z,1019.06
2018-06-28T06:17:37.967Z,1019.07
2018-06-28T06:18:38.000Z,1019.06
2018-06-28T06:19:38.032Z,1019.1
2018-06-28T06:20:38.065Z,1019.09
2018-06-28T06:21:38.103Z,1019.07
2018-06-28T06:22:38.131Z,1019.01
2018-06-28T06:23:38.164Z,1019.05
2018-06-28T06:24:38.197Z,1019.03
2018-06-28T06:25:38.230Z,1019.06
2018-06-28T06:26:38.265Z,1019.11
2018-06-28T06:27:38.354Z,1019.16
2018-06-28T06:28:38.333Z,1019.14
2018-06-28T06:29:38.365Z,1019.16
2018-06-28T06:30:38.438Z,1019.2
2018-06-28T06:31:38.435Z,1019.19
2018-06-28T06:32:38.469Z,1019.16
2018-06-28T06:33:38.502Z,1019.19
2018-06-28T06:34:38.712Z,1019.16
2018-06-28T06:35:38.572Z,1019.13
2018-06-28T06:36:38.606Z,1019.12
2018-06-28T06:38:38.675Z,1019.19
2018-06-28T06:39:38.709Z,1019.12
2018-06-28T06:40:38.744Z,1019.14
2018-06-28T06:41:38.778Z,1019.05
2018-06-28T06:42:38.813Z,1019.1
2018-06-28T06:43:38.848Z,1019.17
2018-06-28T06:44:38.882Z,1019.16
2018-06-28T06:45:38.918Z,1019.13
2018-06-28T06:46:38.952Z,1019.21
2018-06-28T06:47:38.987Z,1019.22
2018-06-28T06:48:39.029Z,1019.13
2018-06-28T06:49:39.058Z,1019.24
2018-06-28T06:50:39.094Z,1019.23
2018-06-28T06:51:39.126Z,1019.23
2018-06-28T06:52:39.162Z,1019.13
2018-06-28T06:54:39.232Z,1019.09
2018-06-28T06:55:39.274Z,1019.07
2018-06-28T06:56:39.305Z,1019.03
2018-06-28T06:57:39.370Z,1019
2018-06-28T06:58:39.374Z,1019.02
2018-06-28T06:59:39.409Z,1019.09
2018-06-28T07:00:39.444Z,1019.12
2018-06-28T07:01:39.479Z,1019.21
2018-06-28T07:02:39.622Z,1019.16
2018-06-28T07:03:39.550Z,1019.23
2018-06-28T07:04:39.586Z,1019.21
2018-06-28T07:05:39.623Z,1019.13
2018-06-28T07:06:39.656Z,1019.25
2018-06-28T07:07:39.691Z,1019.19
2018-06-28T07:08:39.727Z,1019.12
2018-06-28T07:10:39.796Z,1019.16
2018-06-28T07:11:39.830Z,1019.04
2018-06-28T07:12:39.867Z,1018.98
2018-06-28T07:13:39.901Z,1019.03
2018-06-28T07:14:39.936Z,1018.94
2018-06-28T07:15:39.975Z,1019.17
2018-06-28T07:16:40.007Z,1019.04
2018-06-28T07:17:40.045Z,1019.1
2018-06-28T07:18:40.076Z,1019.06
2018-06-28T07:19:40.111Z,1019.11
2018-06-28T07:20:40.146Z,1019.14
2018-06-28T07:21:40.181Z,1019.12
2018-06-28T07:22:40.415Z,1019.22
2018-06-28T07:23:40.251Z,1019.05
2018-06-28T07:24:40.288Z,1019.18
2018-06-28T07:26:40.356Z,1019.27
2018-06-28T07:27:40.391Z,1019.23
2018-06-28T07:28:40.480Z,1019.15
2018-06-28T07:29:40.459Z,1019.21
2018-06-28T07:30:40.496Z,1019.09
2018-06-28T07:31:40.530Z,1019.25
2018-06-28T07:32:40.564Z,1019.14
2018-06-28T07:33:40.600Z,1019.15
2018-06-28T07:34:40.635Z,1019.15
2018-06-28T07:35:40.669Z,1019.13
2018-06-28T07:36:40.705Z,1019.17
2018-06-28T07:37:40.740Z,1019.1
2018-06-28T07:38:40.773Z,1019.06
2018-06-28T07:39:40.810Z,1019.06
2018-06-28T07:41:40.880Z,1019.26
2018-06-28T07:42:40.914Z,1019.33
2018-06-28T07:43:40.949Z,1019.5
2018-06-28T07:44:40.982Z,1019.39
2018-06-28T07:45:41.017Z,1019.56
2018-06-28T07:46:41.052Z,1019.41
2018-06-28T07:47:41.086Z,1019.43
2018-06-28T07:48:41.124Z,1018.85
2018-06-28T07:49:41.154Z,1019.32
2018-06-28T07:50:41.187Z,1019.43
2018-06-28T07:51:41.223Z,1019.48
2018-06-28T07:52:41.262Z,1019.55
2018-06-28T07:53:41.291Z,1019.55
2018-06-28T07:54:41.326Z,1019.61
2018-06-28T07:55:41.362Z,1019.44
2018-06-28T07:56:41.393Z,1019.23
2018-06-28T07:57:41.427Z,1019.37
2018-06-28T07:58:41.462Z,1019.37
2018-06-28T07:59:41.497Z,1019.31
2018-06-28T08:00:41.530Z,1019.25
2018-06-28T08:01:41.565Z,1019.26
2018-06-28T08:02:41.651Z,1019.21
2018-06-28T08:03:41.635Z,1019.14
2018-06-28T08:04:41.667Z,1019.05
2018-06-28T08:05:41.703Z,1019.22
2018-06-28T08:06:41.737Z,1019.02
2018-06-28T08:07:41.774Z,1018.99
2018-06-28T08:08:41.808Z,1019.07
2018-06-28T08:09:41.873Z,1018.98
2018-06-28T08:10:41.878Z,1019
2018-06-28T08:11:41.910Z,1018.9
2018-06-28T08:13:41.981Z,1018.63
2018-06-28T08:14:42.016Z,1018.29
2018-06-28T08:15:42.051Z,1018.27
2018-06-28T08:16:42.086Z,1018.19
2018-06-28T08:17:42.121Z,1018.2
2018-06-28T08:18:42.159Z,1018.29
2018-06-28T08:19:42.190Z,1018.44
2018-06-28T08:20:42.224Z,1018.35
2018-06-28T08:21:42.263Z,1018.38
2018-06-28T08:22:42.293Z,1018.47
2018-06-28T08:23:42.327Z,1018.41
2018-06-28T08:24:42.361Z,1018.39
2018-06-28T08:25:42.395Z,1018.43
2018-06-28T08:26:42.431Z,1018.45
2018-06-28T08:27:42.464Z,1018.42
2018-06-28T08:29:42.532Z,1018.37
2018-06-28T08:30:42.564Z,1018.34
2018-06-28T08:31:42.601Z,1018.33
2018-06-28T08:32:42.633Z,1018.27
2018-06-28T08:33:42.668Z,1018.32
2018-06-28T08:34:42.702Z,1018.12
2018-06-28T08:35:42.736Z,1018.1
2018-06-28T08:36:42.770Z,1018.12
2018-06-28T08:37:42.803Z,1018.12
2018-06-28T08:38:42.837Z,1018.21
2018-06-28T08:39:42.872Z,1018.04
2018-06-28T08:40:42.907Z,1018.02
2018-06-28T08:42:42.974Z,1017.96
2018-06-28T08:43:43.011Z,1018
2018-06-28T08:45:43.075Z,1017.86
2018-06-28T08:46:43.109Z,1017.88
2018-06-28T08:47:43.247Z,1017.92
2018-06-28T08:48:43.175Z,1018.05
2018-06-28T08:49:43.209Z,1017.87
2018-06-28T08:50:43.243Z,1017.81
2018-06-28T08:51:43.275Z,1017.83
2018-06-28T08:52:43.310Z,1017.81
2018-06-28T08:53:43.342Z,1017.81
2018-06-28T08:54:43.376Z,1017.78
2018-06-28T08:55:43.409Z,1017.77
2018-06-28T08:56:43.442Z,1017.68
2018-06-28T08:57:43.582Z,1017.79
2018-06-28T08:58:43.510Z,1017.58
2018-06-28T08:59:43.551Z,1017.79
2018-06-28T09:01:43.608Z,1017.69
2018-06-28T09:02:43.643Z,1017.59
2018-06-28T09:03:43.676Z,1017.62
2018-06-28T09:04:43.709Z,1017.65
2018-06-28T09:05:43.808Z,1017.62
2018-06-28T09:06:43.774Z,1017.54
2018-06-28T09:07:43.807Z,1017.48
2018-06-28T09:08:43.842Z,1017.51
2018-06-28T09:09:43.874Z,1017.61
2018-06-28T09:10:43.907Z,1017.5
2018-06-28T09:11:43.940Z,1017.6
2018-06-28T09:12:43.974Z,1017.47
2018-06-28T09:13:44.007Z,1017.56
2018-06-28T09:14:44.040Z,1017.52
2018-06-28T09:16:44.106Z,1017.54
2018-06-28T09:17:44.137Z,1017.44
2018-06-28T09:18:44.171Z,1017.38
2018-06-28T09:19:44.205Z,1017.51
2018-06-28T09:20:44.237Z,1017.36
2018-06-28T09:21:44.269Z,1017.36
2018-06-28T09:22:44.417Z,1017.39
2018-06-28T09:23:44.334Z,1017.42
2018-06-28T09:24:44.365Z,1017.31
2018-06-28T09:25:44.400Z,1017.3
2018-06-28T09:26:44.431Z,1017.3
2018-06-28T09:27:44.465Z,1017.27
2018-06-28T09:28:44.495Z,1017.35
2018-06-28T09:29:44.528Z,1017.4
2018-06-28T09:30:44.561Z,1017.31
2018-06-28T09:31:44.593Z,1017.31
2018-06-28T09:32:44.629Z,1017.3
2018-06-28T09:33:44.658Z,1017.3
2018-06-28T09:34:44.690Z,1017.27
2018-06-28T09:35:44.761Z,1017.16
2018-06-28T09:36:44.753Z,1017.18
2018-06-28T09:37:44.790Z,1017.19
2018-06-28T09:38:44.818Z,1017.11
2018-06-28T09:39:44.850Z,1017.16
2018-06-28T09:40:44.882Z,1017.25
2018-06-28T09:41:44.914Z,1017.13
2018-06-28T09:42:44.945Z,1017.1
2018-06-28T09:43:44.978Z,1017.14
2018-06-28T09:44:45.011Z,1017.15
2018-06-28T09:45:45.043Z,1017.19
2018-06-28T09:46:45.072Z,1017.11
2018-06-28T09:48:45.155Z,1017.07
2018-06-28T09:49:45.172Z,1017.09
2018-06-28T09:50:45.199Z,1017.16
2018-06-28T09:51:45.230Z,1017.04
2018-06-28T09:52:45.261Z,1017.01
2018-06-28T09:53:45.294Z,1016.96
2018-06-28T09:54:45.329Z,1016.99
2018-06-28T09:55:45.356Z,1017.09
2018-06-28T09:56:45.388Z,1016.99
2018-06-28T09:57:45.418Z,1017.06
2018-06-28T09:58:45.451Z,1017.06
2018-06-28T09:59:45.485Z,1017.07
2018-06-28T10:00:45.515Z,1017.18
2018-06-28T10:01:45.545Z,1017.1
2018-06-28T10:02:45.577Z,1017.03
2018-06-28T10:04:45.640Z,1016.97
2018-06-28T10:05:45.671Z,1016.94
2018-06-28T10:06:45.712Z,1017.02
2018-06-28T10:07:45.734Z,1017.02
2018-06-28T10:08:45.765Z,1017.01
2018-06-28T10:09:45.797Z,1017.05
2018-06-28T10:10:45.829Z,1016.98
2018-06-28T10:11:45.859Z,1016.98
2018-06-28T10:12:45.890Z,1016.96
2018-06-28T10:13:45.922Z,1016.94
2018-06-28T10:14:45.990Z,1016.91
2018-06-28T10:15:45.985Z,1016.83
2018-06-28T10:16:46.220Z,1016.79
2018-06-28T10:17:46.053Z,1016.91
2018-06-28T10:18:46.078Z,1016.89
2018-06-28T10:20:46.139Z,1016.87
2018-06-28T10:21:46.170Z,1016.91
2018-06-28T10:22:46.204Z,1016.92
2018-06-28T10:23:46.231Z,1016.86
2018-06-28T10:24:46.265Z,1016.78
2018-06-28T10:25:46.295Z,1016.86
2018-06-28T10:26:46.326Z,1016.8
2018-06-28T10:27:46.356Z,1016.81
2018-06-28T10:28:46.391Z,1016.75
2018-06-28T10:29:46.418Z,1016.77
2018-06-28T10:30:46.448Z,1016.79
2018-06-28T10:31:46.480Z,1016.81
2018-06-28T10:32:46.529Z,1016.71
2018-06-28T10:33:46.546Z,1016.77
2018-06-28T10:34:46.570Z,1016.72
2018-06-28T10:36:46.634Z,1016.59
2018-06-28T10:37:46.664Z,1016.63
2018-06-28T10:38:46.694Z,1016.5
2018-06-28T10:39:46.725Z,1016.61
2018-06-28T10:40:46.757Z,1016.63
2018-06-28T10:41:46.786Z,1016.57
2018-06-28T10:42:46.817Z,1016.56
2018-06-28T10:43:46.848Z,1016.5
2018-06-28T10:44:46.879Z,1016.59
2018-06-28T10:45:46.909Z,1016.55
2018-06-28T10:46:46.940Z,1016.49
2018-06-28T10:47:46.977Z,1016.46
2018-06-28T10:48:47.001Z,1016.41
2018-06-28T10:49:47.040Z,1016.44
2018-06-28T10:51:47.092Z,1016.47
2018-06-28T10:52:47.121Z,1016.41
2018-06-28T10:53:47.151Z,1016.31
2018-06-28T10:54:47.182Z,1016.35
2018-06-28T10:55:47.214Z,1016.31
2018-06-28T10:56:47.242Z,1016.27
2018-06-28T10:57:47.277Z,1016.37
2018-06-28T10:58:47.303Z,1016.31
2018-06-28T10:59:47.335Z,1016.38
2018-06-28T11:00:47.362Z,1016.29
2018-06-28T11:01:47.421Z,1016.29
2018-06-28T11:02:47.423Z,1016.48
2018-06-28T11:03:47.453Z,1016.13
2018-06-28T11:04:47.483Z,1016.19
2018-06-28T11:05:47.513Z,1016.34
2018-06-28T11:06:47.546Z,1016.22
2018-06-28T11:07:47.573Z,1016.2
2018-06-28T11:08:47.603Z,1016.39
2018-06-28T11:09:47.633Z,1016.2
2018-06-28T11:10:47.662Z,1016.25
2018-06-28T11:11:47.692Z,1016.18
2018-06-28T11:12:47.723Z,1016.26
2018-06-28T11:13:47.752Z,1016.25
2018-06-28T11:14:47.781Z,1016.14
2018-06-28T11:15:47.864Z,1016.1
2018-06-28T11:16:47.842Z,1016.12
2018-06-28T11:17:47.875Z,1016.1
2018-06-28T11:18:47.901Z,1016.08
2018-06-28T11:19:47.930Z,1016.09
2018-06-28T11:20:47.959Z,1016.02
2018-06-28T11:21:47.988Z,1016.02
2018-06-28T11:23:48.049Z,1016.1
2018-06-28T11:24:48.089Z,1016.11
2018-06-28T11:25:48.107Z,1016.15
2018-06-28T11:26:48.138Z,1016.1
2018-06-28T11:27:48.168Z,1016.18
2018-06-28T11:28:48.198Z,1016.03
2018-06-28T11:29:48.227Z,1016.03
2018-06-28T11:30:48.256Z,1016
2018-06-28T11:31:48.289Z,1015.98
2018-06-28T11:32:48.316Z,1015.95
2018-06-28T11:33:48.344Z,1016
2018-06-28T11:34:48.376Z,1016.05
2018-06-28T11:35:48.405Z,1016.02
2018-06-28T11:36:48.434Z,1015.97
2018-06-28T11:37:48.464Z,1016.07
2018-06-28T11:39:48.523Z,1015.93
2018-06-28T11:40:48.553Z,1015.93
2018-06-28T11:41:48.582Z,1015.85
2018-06-28T11:42:48.612Z,1015.9
2018-06-28T11:43:48.642Z,1015.99
2018-06-28T11:44:48.671Z,1015.84
2018-06-28T11:45:48.699Z,1015.85
2018-06-28T11:46:48.730Z,1015.89
2018-06-28T11:47:48.758Z,1015.8
2018-06-28T11:48:48.788Z,1015.81
2018-06-28T11:49:48.818Z,1015.83
2018-06-28T11:50:48.850Z,1015.79
2018-06-28T11:51:48.875Z,1015.78
2018-06-28T11:52:48.906Z,1015.73
2018-06-28T11:53:48.938Z,1015.72
2018-06-28T11:55:48.996Z,1015.84
2018-06-28T11:56:49.022Z,1015.78
2018-06-28T11:57:49.051Z,1015.74
2018-06-28T11:58:49.080Z,1015.76
2018-06-28T11:59:49.109Z,1015.85
2018-06-28T12:00:49.138Z,1015.79
2018-06-28T12:01:49.167Z,1015.7
2018-06-28T12:02:49.196Z,1015.76
2018-06-28T12:03:49.225Z,1015.79
2018-06-28T12:04:49.253Z,1015.71
2018-06-28T12:05:49.282Z,1015.74
2018-06-28T12:06:49.316Z,1015.7
2018-06-28T12:07:49.340Z,1015.7
2018-06-28T12:08:49.374Z,1015.55
2018-06-28T12:09:49.398Z,1015.65
2018-06-28T12:11:49.458Z,1015.58
2018-06-28T12:12:49.486Z,1015.62
2018-06-28T12:13:49.513Z,1015.63
2018-06-28T12:14:49.559Z,1015.56
2018-06-28T12:15:49.572Z,1015.6
2018-06-28T12:16:49.600Z,1015.56
2018-06-28T12:17:49.628Z,1015.64
2018-06-28T12:18:49.658Z,1015.58
2018-06-28T12:19:49.687Z,1015.75
2018-06-28T12:20:49.714Z,1015.53
2018-06-28T12:21:49.745Z,1015.48
2018-06-28T12:22:49.775Z,1015.6
2018-06-28T12:23:49.807Z,1015.56
2018-06-28T12:24:49.834Z,1015.55
2018-06-28T12:26:49.889Z,1015.64
2018-06-28T12:27:49.917Z,1015.52
2018-06-28T12:28:49.946Z,1015.55
2018-06-28T12:29:49.976Z,1015.56
2018-06-28T12:30:50.007Z,1015.48
2018-06-28T12:31:50.034Z,1015.56
2018-06-28T12:32:50.063Z,1015.44
2018-06-28T12:33:50.092Z,1015.45
2018-06-28T12:34:50.120Z,1015.4
2018-06-28T12:35:50.151Z,1015.46
2018-06-28T12:36:50.178Z,1015.5
2018-06-28T12:37:50.206Z,1015.45
2018-06-28T12:38:50.235Z,1015.48
2018-06-28T12:39:50.266Z,1015.43
2018-06-28T12:40:50.291Z,1015.39
2018-06-28T12:41:50.322Z,1015.33
2018-06-28T12:42:50.350Z,1015.33
2018-06-28T12:43:50.378Z,1015.27
2018-06-28T12:44:50.407Z,1015.36
2018-06-28T12:45:50.436Z,1015.42
2018-06-28T12:46:50.467Z,1015.31
2018-06-28T12:47:50.493Z,1015.3
2018-06-28T12:48:50.542Z,1015.34
2018-06-28T12:49:50.551Z,1015.35